createdAt,value
2019-03-09T00:01:57.589Z,68.10
2019-03-09T00:04:27.286Z,68.60
2019-03-09T00:06:57.031Z,68.80
2019-03-09T00:09:26.751Z,68.80
2019-03-09T00:11:56.543Z,70.20
2019-03-09T00:14:26.409Z,70.90
2019-03-09T00:16:57.098Z,71.80
2019-03-09T00:19:27.045Z,72.00
2019-03-09T00:21:56.740Z,73.30
2019-03-09T00:24:35.201Z,73.20
2019-03-09T00:27:16.358Z,73.50
2019-03-09T00:30:04.998Z,74.30
2019-03-09T00:32:34.853Z,74.20
2019-03-09T00:35:04.730Z,75.80
2019-03-09T00:37:34.622Z,75.60
2019-03-09T00:40:04.918Z,75.30
2019-03-09T00:42:34.653Z,75.60
2019-03-09T00:45:04.650Z,75.50
2019-03-09T00:47:34.458Z,75.50
2019-03-09T00:50:04.431Z,76.10
2019-03-09T00:52:34.308Z,77.90
2019-03-09T00:55:04.793Z,78.90
2019-03-09T00:57:34.546Z,80.10
2019-03-09T01:00:04.731Z,80.90
2019-03-09T01:02:34.427Z,82.70
2019-03-09T01:05:04.183Z,81.50
2019-03-09T01:07:33.865Z,79.60
2019-03-09T01:10:03.747Z,78.70
2019-03-09T01:12:33.573Z,79.30
2019-03-09T01:15:03.321Z,79.30
2019-03-09T01:17:33.099Z,78.10
2019-03-09T01:20:04.546Z,77.40
2019-03-09T01:22:34.328Z,76.50
2019-03-09T01:25:04.455Z,75.70
2019-03-09T01:27:34.172Z,77.00
2019-03-09T01:30:03.906Z,79.10
2019-03-09T01:32:33.704Z,79.70
2019-03-09T01:35:03.461Z,81.40
2019-03-09T01:37:33.270Z,81.60
2019-03-09T01:40:03.182Z,82.40
2019-03-09T01:42:32.907Z,85.70
2019-03-09T01:45:02.698Z,88.90
2019-03-09T01:47:32.419Z,91.40
2019-03-09T01:50:02.185Z,92.50
2019-03-09T01:52:31.892Z,94.30
2019-03-09T01:55:03.703Z,94.50
2019-03-09T01:57:33.426Z,94.70
2019-03-09T02:00:03.250Z,94.90
2019-03-09T02:02:32.996Z,95.90
2019-03-09T02:05:02.738Z,96.60
2019-03-09T02:07:32.598Z,96.80
2019-03-09T02:10:02.561Z,96.40
2019-03-09T02:12:32.414Z,97.60
2019-03-09T02:15:02.282Z,97.40
2019-03-09T02:17:32.094Z,96.90
2019-03-09T02:20:01.940Z,97.90
2019-03-09T02:22:31.647Z,98.10
2019-03-09T02:25:01.462Z,99.70
2019-03-09T02:27:31.172Z,99.50
2019-03-09T02:30:00.918Z,99.90
2019-03-09T02:32:30.795Z,99.90
2019-03-09T02:35:00.698Z,99.90
2019-03-09T02:37:30.434Z,99.90
2019-03-09T02:40:06.355Z,99.90
2019-03-09T02:42:36.099Z,99.90
2019-03-09T02:45:11.028Z,99.90
2019-03-09T02:47:40.797Z,99.90
2019-03-09T02:50:14.401Z,99.90
2019-03-09T02:52:44.418Z,99.90
2019-03-09T02:55:14.472Z,99.90
2019-03-09T02:57:44.156Z,99.90
2019-03-09T03:00:16.067Z,99.90
2019-03-09T03:03:04.885Z,99.90
2019-03-09T03:05:37.593Z,99.90
2019-03-09T03:08:07.317Z,99.90
2019-03-09T03:10:37.112Z,99.90
2019-03-09T03:13:06.866Z,99.90
2019-03-09T03:15:37.041Z,99.90
2019-03-09T03:18:06.873Z,99.90
2019-03-09T03:20:36.615Z,97.70
2019-03-09T03:23:06.359Z,96.50
2019-03-09T03:25:36.114Z,96.10
2019-03-09T03:28:05.793Z,94.40
2019-03-09T03:30:35.549Z,96.00
2019-03-09T03:33:05.339Z,95.20
2019-03-09T03:35:35.158Z,94.60
2019-03-09T03:38:05.034Z,93.40
2019-03-09T03:40:34.922Z,92.50
2019-03-09T03:43:04.791Z,93.10
2019-03-09T03:45:34.701Z,93.10
2019-03-09T03:48:05.450Z,93.50
2019-03-09T03:50:35.308Z,93.90
2019-03-09T03:53:05.121Z,94.70
2019-03-09T03:55:34.855Z,94.70
2019-03-09T03:58:04.677Z,94.50
2019-03-09T04:00:34.574Z,93.70
2019-03-09T04:03:04.357Z,94.20
2019-03-09T04:05:34.301Z,94.30
2019-03-09T04:08:04.300Z,94.10
2019-03-09T04:10:34.180Z,94.30
2019-03-09T04:13:04.040Z,93.80
2019-03-09T04:15:33.823Z,93.80
2019-03-09T04:18:03.670Z,94.00
2019-03-09T04:20:33.501Z,93.80
2019-03-09T04:23:03.198Z,93.40
2019-03-09T04:25:32.951Z,93.00
2019-03-09T04:28:02.740Z,93.10
2019-03-09T04:30:32.502Z,94.00
2019-03-09T04:33:02.279Z,94.50
2019-03-09T04:35:32.074Z,93.80
2019-03-09T04:38:01.771Z,94.00
2019-03-09T04:40:31.544Z,94.10
2019-03-09T04:43:01.288Z,93.80
2019-03-09T04:45:31.053Z,94.50
2019-03-09T04:48:00.763Z,94.20
2019-03-09T04:50:30.666Z,95.50
2019-03-09T04:53:00.337Z,96.30
2019-03-09T04:55:30.060Z,97.40
2019-03-09T04:57:59.851Z,98.40
2019-03-09T05:00:29.639Z,97.80
2019-03-09T05:02:59.394Z,97.30
2019-03-09T05:05:29.105Z,96.40
2019-03-09T05:08:29.544Z,95.00
2019-03-09T05:11:08.886Z,93.90
2019-03-09T05:13:45.139Z,92.70
2019-03-09T05:16:14.907Z,91.40
2019-03-09T05:18:44.597Z,91.60
2019-03-09T05:21:14.303Z,91.10
2019-03-09T05:23:44.049Z,90.50
2019-03-09T05:26:13.759Z,91.10
2019-03-09T05:28:43.520Z,90.30
2019-03-09T05:31:13.410Z,90.20
2019-03-09T05:33:43.219Z,90.20
2019-03-09T05:36:12.932Z,88.30
2019-03-09T05:38:42.743Z,85.70
2019-03-09T05:41:12.459Z,86.30
2019-03-09T05:43:43.910Z,86.30
2019-03-09T05:46:13.599Z,85.30
2019-03-09T05:48:43.343Z,84.10
2019-03-09T05:51:13.239Z,84.40
2019-03-09T05:53:43.018Z,84.70
2019-03-09T05:56:12.762Z,82.60
2019-03-09T05:58:42.586Z,82.10
2019-03-09T06:01:12.298Z,81.00
2019-03-09T06:03:42.115Z,80.60
2019-03-09T06:06:14.185Z,79.50
2019-03-09T06:08:44.071Z,78.50
2019-03-09T06:11:13.835Z,75.10
2019-03-09T06:13:43.600Z,74.50
2019-03-09T06:16:13.291Z,73.50
2019-03-09T06:18:43.091Z,71.50
2019-03-09T06:21:12.868Z,68.60
2019-03-09T06:23:42.613Z,66.00
2019-03-09T06:26:12.372Z,66.60
2019-03-09T06:28:42.179Z,64.30
2019-03-09T06:31:11.995Z,63.00
2019-03-09T06:33:43.179Z,60.40
2019-03-09T06:36:38.618Z,59.60
2019-03-09T06:39:43.851Z,59.40
2019-03-09T06:42:36.066Z,60.20
2019-03-09T06:45:08.590Z,60.20
2019-03-09T06:47:38.319Z,62.00
2019-03-09T06:50:09.350Z,58.90
2019-03-09T06:52:39.112Z,58.80
2019-03-09T06:55:09.946Z,52.00
2019-03-09T06:57:39.687Z,47.10
2019-03-09T07:00:37.391Z,41.10
2019-03-09T07:03:07.805Z,39.30
2019-03-09T07:05:37.510Z,35.20
2019-03-09T07:08:07.379Z,36.20
2019-03-09T07:10:37.185Z,36.00
2019-03-09T07:13:06.936Z,39.00
2019-03-09T07:15:39.058Z,40.30
2019-03-09T07:18:17.087Z,41.20
2019-03-09T07:20:46.783Z,43.40
2019-03-09T07:23:16.513Z,44.60
2019-03-09T07:25:46.615Z,45.20
2019-03-09T07:28:16.986Z,43.80
2019-03-09T07:30:46.846Z,43.80
2019-03-09T07:33:16.754Z,42.50
2019-03-09T07:35:46.503Z,41.90
2019-03-09T07:38:20.897Z,42.80
2019-03-09T07:40:50.698Z,43.30
2019-03-09T07:43:20.480Z,42.70
2019-03-09T07:45:50.215Z,42.10
2019-03-09T07:48:20.077Z,43.10
2019-03-09T07:50:49.942Z,43.00
2019-03-09T07:53:19.702Z,42.20
2019-03-09T07:55:49.805Z,42.00
2019-03-09T07:58:19.666Z,42.60
2019-03-09T08:00:49.540Z,41.60
2019-03-09T08:03:19.291Z,40.60
2019-03-09T08:05:49.312Z,42.30
2019-03-09T08:08:19.023Z,42.50
2019-03-09T08:10:48.860Z,42.80
2019-03-09T08:13:18.574Z,44.80
2019-03-09T08:15:48.423Z,44.20
2019-03-09T08:18:18.187Z,44.50
2019-03-09T08:20:47.961Z,45.20
2019-03-09T08:23:17.684Z,45.10
2019-03-09T08:25:47.495Z,44.30
2019-03-09T08:28:17.209Z,41.10
2019-03-09T08:30:46.978Z,37.40
2019-03-09T08:33:16.769Z,37.10
2019-03-09T08:35:46.482Z,36.90
2019-03-09T08:38:16.222Z,35.90
2019-03-09T08:40:45.996Z,35.60
2019-03-09T08:43:15.707Z,37.30
2019-03-09T08:45:45.597Z,38.30
2019-03-09T08:48:15.387Z,40.40
2019-03-09T08:50:45.170Z,41.60
2019-03-09T08:53:14.931Z,42.60
2019-03-09T08:55:44.698Z,43.20
2019-03-09T08:58:14.422Z,43.30
2019-03-09T09:00:44.215Z,44.20
2019-03-09T09:03:14.012Z,44.20
2019-03-09T09:05:43.848Z,46.20
2019-03-09T09:08:13.617Z,46.90
2019-03-09T09:10:43.406Z,51.70
2019-03-09T09:13:13.094Z,57.50
2019-03-09T09:15:42.949Z,65.80
2019-03-09T09:18:13.056Z,73.10
2019-03-09T09:20:42.844Z,81.10
2019-03-09T09:23:12.651Z,85.60
2019-03-09T09:25:43.617Z,95.10
2019-03-09T09:28:13.493Z,97.70
2019-03-09T09:30:43.286Z,99.90
2019-03-09T09:33:13.126Z,98.60
2019-03-09T09:35:44.690Z,99.90
2019-03-09T09:38:24.811Z,99.20
2019-03-09T09:40:54.707Z,98.80
2019-03-09T09:43:24.461Z,97.40
2019-03-09T09:45:54.281Z,95.60
2019-03-09T09:48:24.027Z,94.40
2019-03-09T09:50:56.281Z,99.30
2019-03-09T09:53:25.993Z,95.70
2019-03-09T09:55:55.696Z,93.20
2019-03-09T09:58:25.602Z,93.90
2019-03-09T10:00:55.355Z,90.30
2019-03-09T10:03:30.753Z,91.40
2019-03-09T10:06:00.488Z,92.90
2019-03-09T10:08:30.225Z,91.00
2019-03-09T10:10:59.997Z,88.90
2019-03-09T10:13:29.777Z,91.70
2019-03-09T10:15:59.527Z,96.70
2019-03-09T10:18:30.229Z,99.90
2019-03-09T10:21:00.144Z,99.80
2019-03-09T10:23:29.943Z,99.90
2019-03-09T10:26:00.641Z,97.90
2019-03-09T10:28:30.396Z,99.90
2019-03-09T10:31:00.237Z,97.20
2019-03-09T10:33:30.046Z,93.90
2019-03-09T10:35:59.960Z,91.50
2019-03-09T10:38:29.706Z,93.20
2019-03-09T10:40:59.415Z,87.20
2019-03-09T10:43:30.438Z,89.90
2019-03-09T10:46:00.148Z,84.60
2019-03-09T10:48:29.926Z,81.70
2019-03-09T10:50:59.810Z,82.60
2019-03-09T10:53:29.634Z,82.90
2019-03-09T10:55:59.378Z,81.10
2019-03-09T10:58:29.220Z,77.60
2019-03-09T11:00:58.996Z,78.30
2019-03-09T11:03:28.768Z,77.00
2019-03-09T11:05:58.504Z,72.90
2019-03-09T11:08:28.312Z,70.10
2019-03-09T11:10:58.042Z,73.10
2019-03-09T11:13:27.860Z,68.50
2019-03-09T11:15:57.591Z,65.50
2019-03-09T11:18:27.465Z,68.30
2019-03-09T11:20:57.294Z,64.00
2019-03-09T11:23:27.173Z,63.50
2019-03-09T11:25:57.020Z,65.00
2019-03-09T11:28:26.798Z,66.00
2019-03-09T11:30:56.606Z,69.20
2019-03-09T11:33:30.734Z,66.40
2019-03-09T11:36:00.626Z,65.90
2019-03-09T11:38:30.566Z,66.70
2019-03-09T11:41:03.419Z,66.40
2019-03-09T11:43:33.199Z,65.30
2019-03-09T11:46:06.128Z,67.30
2019-03-09T11:48:36.139Z,62.40
2019-03-09T11:51:06.109Z,60.50
2019-03-09T11:53:35.989Z,62.70
2019-03-09T11:56:05.753Z,60.00
2019-03-09T11:58:35.544Z,57.00
2019-03-09T12:01:05.363Z,56.60
2019-03-09T12:03:35.112Z,56.20
2019-03-09T12:06:04.817Z,58.10
2019-03-09T12:08:34.611Z,55.60
2019-03-09T12:11:04.449Z,55.60
2019-03-09T12:13:34.234Z,54.70
2019-03-09T12:16:04.075Z,55.20
2019-03-09T12:18:34.015Z,55.00
2019-03-09T12:21:03.701Z,51.50
2019-03-09T12:23:33.533Z,51.30
2019-03-09T12:26:04.352Z,50.90
2019-03-09T12:28:34.246Z,51.90
2019-03-09T12:31:04.008Z,52.80
2019-03-09T12:33:33.836Z,52.30
2019-03-09T12:36:03.653Z,51.10
2019-03-09T12:38:33.555Z,52.10
2019-03-09T12:41:03.366Z,50.90
2019-03-09T12:43:34.628Z,51.10
2019-03-09T12:46:04.499Z,51.70
2019-03-09T12:48:34.271Z,48.50
2019-03-09T12:51:04.029Z,49.20
2019-03-09T12:53:33.813Z,45.90
2019-03-09T12:56:03.741Z,45.30
2019-03-09T12:58:34.003Z,43.50
2019-03-09T13:01:03.741Z,44.60
2019-03-09T13:03:33.652Z,43.60
2019-03-09T13:06:05.142Z,43.60
2019-03-09T13:08:35.007Z,45.20
2019-03-09T13:11:04.803Z,44.40
2019-03-09T13:13:34.597Z,44.30
2019-03-09T13:16:21.888Z,41.90
2019-03-09T13:19:05.919Z,42.50
2019-03-09T13:21:50.430Z,39.70
2019-03-09T13:24:40.927Z,40.20
2019-03-09T13:27:28.507Z,40.10
2019-03-09T13:29:58.299Z,39.20
2019-03-09T13:32:28.122Z,39.60
2019-03-09T13:35:00.320Z,38.20
2019-03-09T13:37:30.188Z,39.70
2019-03-09T13:39:59.991Z,39.80
2019-03-09T13:42:29.769Z,38.30
2019-03-09T13:45:00.364Z,38.30
2019-03-09T13:47:30.405Z,39.00
2019-03-09T13:50:00.354Z,38.30
2019-03-09T13:52:30.332Z,38.20
2019-03-09T13:55:00.245Z,38.10
2019-03-09T13:57:30.119Z,38.50
2019-03-09T13:59:59.911Z,41.90
2019-03-09T14:02:29.683Z,37.70
2019-03-09T14:04:59.536Z,37.10
2019-03-09T14:07:29.297Z,38.00
2019-03-09T14:09:59.239Z,38.00
2019-03-09T14:12:29.044Z,38.50
2019-03-09T14:14:58.773Z,38.10
2019-03-09T14:17:28.541Z,38.50
2019-03-09T14:19:58.402Z,38.90
2019-03-09T14:22:28.146Z,39.40
2019-03-09T14:24:57.950Z,39.30
2019-03-09T14:27:27.733Z,39.40
2019-03-09T14:29:57.905Z,40.00
2019-03-09T14:32:27.617Z,40.80
2019-03-09T14:34:57.419Z,41.30
2019-03-09T14:37:27.253Z,40.60
2019-03-09T14:39:57.380Z,39.80
2019-03-09T14:42:27.121Z,40.10
2019-03-09T14:44:57.048Z,41.20
2019-03-09T14:47:26.879Z,40.80
2019-03-09T14:49:56.907Z,40.50
2019-03-09T14:52:26.678Z,39.50
2019-03-09T14:54:56.481Z,40.30
2019-03-09T14:57:26.479Z,40.50
2019-03-09T14:59:56.285Z,39.60
2019-03-09T15:02:26.116Z,39.50
2019-03-09T15:04:55.927Z,40.40
2019-03-09T15:07:25.652Z,41.00
2019-03-09T15:09:55.475Z,41.30
2019-03-09T15:12:25.193Z,40.90
2019-03-09T15:14:55.405Z,41.70
2019-03-09T15:17:25.153Z,42.60
2019-03-09T15:19:55.355Z,44.80
2019-03-09T15:22:25.083Z,54.60
2019-03-09T15:24:55.073Z,75.10
2019-03-09T15:27:24.948Z,91.90
2019-03-09T15:29:55.015Z,99.90
2019-03-09T15:32:24.803Z,99.90
2019-03-09T15:34:54.697Z,99.90
2019-03-09T15:37:24.522Z,99.90
2019-03-09T15:39:56.868Z,99.90
2019-03-09T15:42:26.687Z,99.90
2019-03-09T15:44:56.500Z,99.90
2019-03-09T15:47:27.685Z,99.90
2019-03-09T15:49:57.656Z,99.90
2019-03-09T15:52:27.722Z,99.90
2019-03-09T15:54:57.820Z,99.90
2019-03-09T15:57:27.595Z,99.90
2019-03-09T15:59:57.392Z,99.90
2019-03-09T16:02:27.297Z,99.90
2019-03-09T16:04:57.276Z,99.90
2019-03-09T16:07:27.290Z,99.90
2019-03-09T16:09:57.349Z,99.90
2019-03-09T16:12:27.160Z,99.90
2019-03-09T16:14:57.470Z,99.90
2019-03-09T16:17:27.397Z,99.90
2019-03-09T16:19:57.565Z,99.90
2019-03-09T16:22:28.698Z,99.90
2019-03-09T16:24:58.600Z,99.90
2019-03-09T16:27:28.509Z,99.90
2019-03-09T16:30:00.380Z,99.90
2019-03-09T16:32:30.318Z,99.90
2019-03-09T16:35:00.323Z,99.90
2019-03-09T16:37:30.471Z,99.90
2019-03-09T16:40:00.723Z,99.90
2019-03-09T16:42:30.652Z,99.90
2019-03-09T16:45:00.602Z,99.90
2019-03-09T16:47:32.815Z,99.90
2019-03-09T16:50:02.571Z,99.90
2019-03-09T16:52:32.744Z,99.90
2019-03-09T16:55:02.585Z,99.90
2019-03-09T16:57:32.705Z,99.90
2019-03-09T17:00:06.682Z,99.90
2019-03-09T17:02:36.981Z,99.90
2019-03-09T17:05:06.908Z,99.90
2019-03-09T17:07:41.452Z,99.90
2019-03-09T17:10:10.980Z,99.90
2019-03-09T17:12:40.842Z,99.90
2019-03-09T17:15:11.687Z,99.90
2019-03-09T17:17:41.533Z,99.90
2019-03-09T17:20:12.087Z,99.90
2019-03-09T17:22:41.961Z,99.90
2019-03-09T17:25:12.221Z,99.90
2019-03-09T17:27:42.723Z,99.90
2019-03-09T17:30:15.205Z,99.90
2019-03-09T17:32:44.997Z,99.90
2019-03-09T17:35:19.478Z,99.90
2019-03-09T17:37:53.994Z,99.90
2019-03-09T17:40:27.674Z,99.90
2019-03-09T17:42:58.260Z,99.90
2019-03-09T17:45:49.351Z,99.90
2019-03-09T17:48:19.180Z,99.90
2019-03-09T17:50:48.953Z,99.90
2019-03-09T17:53:18.699Z,99.90
2019-03-09T17:55:48.397Z,99.90
2019-03-09T17:58:18.146Z,99.90
2019-03-09T18:00:48.197Z,99.90
2019-03-09T18:03:17.958Z,99.90
2019-03-09T18:05:49.472Z,99.90
2019-03-09T18:08:19.198Z,99.90
2019-03-09T18:10:51.781Z,99.90
2019-03-09T18:13:21.678Z,99.90
2019-03-09T18:15:51.374Z,99.90
2019-03-09T18:18:21.296Z,99.90
2019-03-09T18:20:50.990Z,99.90
2019-03-09T18:23:20.902Z,99.90
2019-03-09T18:25:52.298Z,99.90
2019-03-09T18:28:22.125Z,99.90
2019-03-09T18:30:51.943Z,99.90
2019-03-09T18:33:21.698Z,99.90
2019-03-09T18:35:51.431Z,99.90
2019-03-09T18:38:21.162Z,99.90
2019-03-09T18:40:51.040Z,99.90
2019-03-09T18:43:20.832Z,99.90
2019-03-09T18:45:50.662Z,99.90
2019-03-09T18:48:22.000Z,99.90
2019-03-09T18:50:51.796Z,99.90
2019-03-09T18:53:21.535Z,99.90
2019-03-09T18:55:58.847Z,99.90
2019-03-09T18:58:22.700Z,99.90
2019-03-09T19:00:54.846Z,99.90
2019-03-09T19:03:25.069Z,99.90
2019-03-09T19:05:54.797Z,99.90
2019-03-09T19:08:24.612Z,99.90
2019-03-09T19:10:54.317Z,99.90
2019-03-09T19:13:24.030Z,99.90
2019-03-09T19:15:53.793Z,99.90
2019-03-09T19:18:25.103Z,99.90
2019-03-09T19:20:54.857Z,99.90
2019-03-09T19:23:24.582Z,99.90
2019-03-09T19:25:54.306Z,99.90
2019-03-09T19:28:24.072Z,99.90
2019-03-09T19:30:54.014Z,99.90
2019-03-09T19:33:23.799Z,99.90
2019-03-09T19:35:53.478Z,99.90
2019-03-09T19:38:32.684Z,99.90
2019-03-09T19:41:02.998Z,99.90
2019-03-09T19:43:32.724Z,99.90
2019-03-09T19:46:02.487Z,99.90
2019-03-09T19:48:33.320Z,99.90
2019-03-09T19:51:04.394Z,99.90
2019-03-09T19:53:34.392Z,99.90
2019-03-09T19:56:04.683Z,99.90
2019-03-09T19:58:34.458Z,99.90
2019-03-09T20:01:04.190Z,99.90
2019-03-09T20:03:37.888Z,99.90
2019-03-09T20:06:09.170Z,99.90
2019-03-09T20:08:39.356Z,99.90
2019-03-09T20:11:09.166Z,99.90
2019-03-09T20:13:39.109Z,99.90
2019-03-09T20:16:08.935Z,99.90
2019-03-09T20:18:38.734Z,99.90
2019-03-09T20:21:08.598Z,99.90
2019-03-09T20:23:38.383Z,99.90
2019-03-09T20:26:08.271Z,99.90
2019-03-09T20:28:38.058Z,99.90
2019-03-09T20:31:07.860Z,99.90
2019-03-09T20:33:37.647Z,99.90
2019-03-09T20:36:07.378Z,99.90
2019-03-09T20:38:37.152Z,99.90
2019-03-09T20:41:06.877Z,99.90
2019-03-09T20:43:36.650Z,99.90
2019-03-09T20:46:06.535Z,99.90
2019-03-09T20:48:36.502Z,99.90
2019-03-09T20:51:06.346Z,99.90
2019-03-09T20:53:36.178Z,99.90
2019-03-09T20:56:05.979Z,99.90
2019-03-09T20:58:35.754Z,99.90
2019-03-09T21:01:07.819Z,99.90
2019-03-09T21:03:39.118Z,99.90
2019-03-09T21:06:08.802Z,99.90
2019-03-09T21:08:38.562Z,99.90
2019-03-09T21:11:08.951Z,99.90
2019-03-09T21:13:38.679Z,99.90
2019-03-09T21:16:09.539Z,99.90
2019-03-09T21:18:39.322Z,99.90
2019-03-09T21:21:09.258Z,99.90
2019-03-09T21:23:39.027Z,99.90
2019-03-09T21:26:08.784Z,99.90
2019-03-09T21:28:38.579Z,99.90
2019-03-09T21:31:08.408Z,99.90
2019-03-09T21:33:38.209Z,99.90
2019-03-09T21:36:08.102Z,99.90
2019-03-09T21:38:37.892Z,99.90
2019-03-09T21:41:07.712Z,99.90
2019-03-09T21:43:37.689Z,99.90
2019-03-09T21:46:07.547Z,99.90
2019-03-09T21:48:37.320Z,99.90
2019-03-09T21:51:07.022Z,99.90
2019-03-09T21:53:37.145Z,99.90
2019-03-09T21:56:06.979Z,99.90
2019-03-09T21:58:36.866Z,99.90
2019-03-09T22:01:06.694Z,99.90
2019-03-09T22:03:36.450Z,99.90
2019-03-09T22:06:07.529Z,99.90
2019-03-09T22:08:37.261Z,99.90
2019-03-09T22:11:07.123Z,99.90
2019-03-09T22:13:37.019Z,99.90
2019-03-09T22:16:06.983Z,99.90
2019-03-09T22:18:36.797Z,99.90
2019-03-09T22:21:06.686Z,99.90
2019-03-09T22:23:43.686Z,99.90
2019-03-09T22:26:07.855Z,99.90
2019-03-09T22:28:37.741Z,99.90
2019-03-09T22:31:07.495Z,99.90
2019-03-09T22:33:37.224Z,99.90
2019-03-09T22:36:06.996Z,99.90
2019-03-09T22:38:36.695Z,99.90
2019-03-09T22:41:06.607Z,99.90
2019-03-09T22:43:36.274Z,99.90
2019-03-09T22:46:06.042Z,99.90
2019-03-09T22:48:35.815Z,99.90
2019-03-09T22:51:05.536Z,99.90
2019-03-09T22:53:35.234Z,99.90
2019-03-09T22:56:05.010Z,99.90
2019-03-09T22:58:35.122Z,99.90
2019-03-09T23:01:05.000Z,99.90
2019-03-09T23:03:34.751Z,99.90
2019-03-09T23:06:04.653Z,99.90
2019-03-09T23:08:34.303Z,99.90
2019-03-09T23:11:06.550Z,99.90
2019-03-09T23:13:36.310Z,99.90
2019-03-09T23:16:06.167Z,99.90
2019-03-09T23:18:35.901Z,99.90
2019-03-09T23:21:05.715Z,99.90
2019-03-09T23:23:35.903Z,99.90
2019-03-09T23:26:05.783Z,99.90
2019-03-09T23:28:54.573Z,99.90
2019-03-09T23:31:24.343Z,94.00
2019-03-09T23:33:54.074Z,99.90
2019-03-09T23:36:23.828Z,91.10
2019-03-09T23:38:53.515Z,91.30
2019-03-09T23:41:23.358Z,90.00
2019-03-09T23:43:53.113Z,90.20
2019-03-09T23:46:23.028Z,91.40
2019-03-09T23:48:53.607Z,88.70
2019-03-09T23:51:23.503Z,90.70
2019-03-09T23:53:57.549Z,85.70
2019-03-09T23:56:27.383Z,86.10
2019-03-09T23:58:57.219Z,89.30
